createdAt,value
2022-12-18T00:00:51.201Z,17.52
2022-12-18T00:03:18.409Z,18.42
2022-12-18T00:05:50.336Z,20.00
2022-12-18T00:08:17.943Z,20.98
2022-12-18T00:10:45.651Z,19.40
2022-12-18T00:13:13.055Z,19.13
2022-12-18T00:15:40.857Z,19.60
2022-12-18T00:18:08.231Z,18.85
2022-12-18T00:20:39.366Z,18.38
2022-12-18T00:23:07.134Z,19.60
2022-12-18T00:25:35.716Z,20.17
2022-12-18T00:28:03.561Z,17.48
2022-12-18T00:30:31.169Z,18.25
2022-12-18T00:32:59.199Z,17.77
2022-12-18T00:35:26.336Z,17.92
2022-12-18T00:37:53.483Z,17.88
2022-12-18T00:40:20.845Z,16.30
2022-12-18T00:42:56.868Z,17.20
2022-12-18T00:45:28.876Z,15.85
2022-12-18T00:47:56.342Z,16.55
2022-12-18T00:50:24.149Z,17.80
2022-12-18T00:52:51.531Z,16.90
2022-12-18T00:55:18.751Z,17.13
2022-12-18T00:57:46.115Z,17.48
2022-12-18T01:00:15.032Z,16.65
2022-12-18T01:02:42.677Z,16.90
2022-12-18T01:05:11.063Z,17.20
2022-12-18T01:07:38.695Z,16.95
2022-12-18T01:10:06.486Z,18.08
2022-12-18T01:12:33.917Z,19.98
2022-12-18T01:15:01.122Z,17.95
2022-12-18T01:17:28.242Z,18.10
2022-12-18T01:19:55.426Z,18.17
2022-12-18T01:22:22.570Z,18.20
2022-12-18T01:24:49.714Z,19.55
2022-12-18T01:27:16.938Z,18.48
2022-12-18T01:29:44.092Z,18.23
2022-12-18T01:32:11.240Z,18.50
2022-12-18T01:34:38.767Z,20.08
2022-12-18T01:37:06.209Z,19.15
2022-12-18T01:39:33.748Z,19.95
2022-12-18T01:42:07.420Z,19.23
2022-12-18T01:45:07.224Z,19.43
2022-12-18T01:47:40.443Z,19.95
2022-12-18T01:50:22.245Z,19.85
2022-12-18T01:52:51.831Z,19.08
2022-12-18T01:55:21.042Z,18.58
2022-12-18T01:57:49.124Z,19.30
2022-12-18T02:00:17.531Z,18.92
2022-12-18T02:02:45.700Z,19.77
2022-12-18T02:05:14.369Z,20.08
2022-12-18T02:08:04.691Z,19.77
2022-12-18T02:10:38.161Z,19.35
2022-12-18T02:13:20.431Z,20.13
2022-12-18T02:15:59.867Z,19.55
2022-12-18T02:18:32.121Z,20.05
2022-12-18T02:21:14.600Z,20.95
2022-12-18T02:23:49.011Z,20.27
2022-12-18T02:26:16.114Z,19.60
2022-12-18T02:28:45.994Z,21.35
2022-12-18T02:31:16.324Z,20.02
2022-12-18T02:33:45.149Z,20.25
2022-12-18T02:36:12.633Z,20.60
2022-12-18T02:38:40.322Z,19.80
2022-12-18T02:41:07.876Z,19.42
2022-12-18T02:43:35.111Z,19.70
2022-12-18T02:46:03.162Z,20.48
2022-12-18T02:48:34.095Z,19.90
2022-12-18T02:51:10.146Z,21.30
2022-12-18T02:53:41.722Z,22.40
2022-12-18T02:56:13.221Z,19.00
2022-12-18T02:58:49.509Z,20.90
2022-12-18T03:01:30.148Z,19.05
2022-12-18T03:03:59.507Z,19.52
2022-12-18T03:06:43.555Z,21.65
2022-12-18T03:09:16.406Z,19.63
2022-12-18T03:12:03.034Z,20.92
2022-12-18T03:14:32.289Z,19.20
2022-12-18T03:17:02.535Z,20.15
2022-12-18T03:19:31.072Z,19.48
2022-12-18T03:21:59.391Z,19.98
2022-12-18T03:24:28.220Z,19.05
2022-12-18T03:26:56.699Z,20.20
2022-12-18T03:29:29.572Z,20.58
2022-12-18T03:31:59.794Z,20.60
2022-12-18T03:34:30.423Z,20.10
2022-12-18T03:36:57.575Z,19.83
2022-12-18T03:39:25.489Z,19.65
2022-12-18T03:41:59.545Z,18.85
2022-12-18T03:44:41.955Z,20.23
2022-12-18T03:47:11.583Z,18.77
2022-12-18T03:49:49.671Z,19.40
2022-12-18T03:52:22.780Z,18.83
2022-12-18T03:54:50.010Z,18.52
2022-12-18T03:57:24.641Z,18.23
2022-12-18T04:02:19.721Z,17.52
2022-12-18T04:04:49.013Z,19.30
2022-12-18T04:07:16.407Z,18.35
2022-12-18T04:09:44.528Z,19.45
2022-12-18T04:12:11.705Z,18.02
2022-12-18T04:14:38.910Z,20.17
2022-12-18T04:17:06.070Z,19.45
2022-12-18T04:19:33.226Z,18.98
2022-12-18T04:22:00.349Z,17.98
2022-12-18T04:24:27.701Z,18.55
2022-12-18T04:26:54.833Z,18.45
2022-12-18T04:29:21.993Z,17.88
2022-12-18T04:31:49.109Z,19.02
2022-12-18T04:34:16.254Z,18.70
2022-12-18T04:36:43.474Z,19.00
2022-12-18T04:39:10.668Z,17.52
2022-12-18T04:41:37.823Z,18.35
2022-12-18T04:44:05.365Z,16.33
2022-12-18T04:46:32.844Z,18.42
2022-12-18T04:48:59.993Z,17.08
2022-12-18T04:51:27.161Z,16.55
2022-12-18T04:53:54.556Z,18.23
2022-12-18T04:56:22.211Z,17.48
2022-12-18T04:58:49.577Z,17.77
2022-12-18T05:01:17.631Z,18.48
2022-12-18T05:03:45.544Z,17.67
2022-12-18T05:06:12.923Z,18.10
2022-12-18T05:08:40.082Z,18.42
2022-12-18T05:11:13.230Z,17.65
2022-12-18T05:13:40.942Z,18.20
2022-12-18T05:16:08.617Z,17.63
2022-12-18T05:18:36.009Z,18.77
2022-12-18T05:21:03.442Z,18.45
2022-12-18T05:23:30.611Z,17.98
2022-12-18T05:26:01.823Z,18.02
2022-12-18T05:28:29.836Z,17.17
2022-12-18T05:30:58.115Z,17.02
2022-12-18T05:33:26.476Z,17.20
2022-12-18T05:35:54.409Z,17.33
2022-12-18T05:38:25.152Z,17.85
2022-12-18T05:40:52.905Z,17.85
2022-12-18T05:43:21.848Z,16.35
2022-12-18T05:45:49.547Z,18.20
2022-12-18T05:48:17.493Z,16.92
2022-12-18T05:50:48.880Z,16.90
2022-12-18T05:53:17.632Z,16.70
2022-12-18T05:55:45.608Z,17.92
2022-12-18T05:58:13.544Z,15.85
2022-12-18T06:00:42.314Z,14.45
2022-12-18T06:03:10.359Z,14.82
2022-12-18T06:05:38.350Z,15.52
2022-12-18T06:08:05.626Z,16.27
2022-12-18T06:10:33.289Z,16.05
2022-12-18T06:13:00.519Z,14.90
2022-12-18T06:15:27.682Z,15.18
2022-12-18T06:17:54.805Z,16.95
2022-12-18T06:20:22.024Z,15.30
2022-12-18T06:22:49.328Z,14.68
2022-12-18T06:25:17.134Z,14.88
2022-12-18T06:27:44.593Z,14.52
2022-12-18T06:30:12.120Z,13.68
2022-12-18T06:32:39.781Z,14.98
2022-12-18T06:35:07.234Z,14.77
2022-12-18T06:37:34.398Z,15.70
2022-12-18T06:40:02.011Z,17.17
2022-12-18T06:42:30.154Z,16.33
2022-12-18T06:44:57.423Z,16.02
2022-12-18T06:47:24.638Z,15.88
2022-12-18T06:49:51.779Z,16.02
2022-12-18T06:52:18.976Z,16.98
2022-12-18T06:54:46.095Z,17.70
2022-12-18T06:57:13.239Z,15.93
2022-12-18T06:59:40.404Z,15.75
2022-12-18T07:02:07.717Z,15.23
2022-12-18T07:04:34.971Z,15.60
2022-12-18T07:07:02.346Z,15.35
2022-12-18T07:09:29.556Z,15.05
2022-12-18T07:11:56.707Z,15.18
2022-12-18T07:14:25.097Z,13.95
2022-12-18T07:16:52.270Z,16.25
2022-12-18T07:19:19.452Z,15.60
2022-12-18T07:21:46.592Z,17.50
2022-12-18T07:24:13.926Z,15.00
2022-12-18T07:26:41.071Z,14.95
2022-12-18T07:29:08.179Z,13.65
2022-12-18T07:31:35.711Z,13.00
2022-12-18T07:34:02.885Z,14.32
2022-12-18T07:36:30.065Z,14.43
2022-12-18T07:38:57.255Z,14.27
2022-12-18T07:41:24.435Z,13.60
2022-12-18T07:43:51.672Z,14.27
2022-12-18T07:46:19.508Z,14.20
2022-12-18T07:48:49.849Z,13.77
2022-12-18T07:51:17.575Z,14.07
2022-12-18T07:53:45.630Z,13.60
2022-12-18T07:56:31.214Z,13.80
2022-12-18T07:58:58.989Z,14.32
2022-12-18T08:01:26.445Z,14.35
2022-12-18T08:03:53.757Z,14.63
2022-12-18T08:06:24.093Z,14.07
2022-12-18T08:08:52.466Z,14.90
2022-12-18T08:11:19.641Z,12.32
2022-12-18T08:13:47.071Z,13.68
2022-12-18T08:16:14.255Z,13.90
2022-12-18T08:18:41.457Z,13.85
2022-12-18T08:21:12.005Z,14.57
2022-12-18T08:23:42.710Z,12.95
2022-12-18T08:26:10.910Z,12.98
2022-12-18T08:28:38.199Z,13.07
2022-12-18T08:31:05.513Z,13.82
2022-12-18T08:33:33.110Z,12.63
2022-12-18T08:36:00.924Z,13.18
2022-12-18T08:38:28.094Z,12.23
2022-12-18T08:41:05.311Z,12.45
2022-12-18T08:43:51.261Z,13.23
2022-12-18T08:46:19.184Z,11.85
2022-12-18T08:48:46.573Z,12.23
2022-12-18T08:51:14.055Z,13.13
2022-12-18T08:53:41.434Z,12.43
2022-12-18T08:56:09.236Z,12.82
2022-12-18T08:58:36.388Z,12.32
2022-12-18T09:01:08.162Z,12.85
2022-12-18T09:03:35.407Z,12.20
2022-12-18T09:06:02.704Z,12.57
2022-12-18T09:08:30.012Z,12.35
2022-12-18T09:10:57.457Z,12.45
2022-12-18T09:13:25.049Z,12.60
2022-12-18T09:15:53.844Z,12.65
2022-12-18T09:18:22.155Z,12.57
2022-12-18T09:20:49.348Z,11.95
2022-12-18T09:23:16.521Z,12.20
2022-12-18T09:25:43.765Z,12.13
2022-12-18T09:28:15.596Z,12.43
2022-12-18T09:30:43.588Z,12.63
2022-12-18T09:33:10.777Z,12.40
2022-12-18T09:35:41.556Z,12.32
2022-12-18T09:38:09.970Z,12.75
2022-12-18T09:40:41.464Z,13.25
2022-12-18T09:43:12.188Z,12.73
2022-12-18T09:45:47.634Z,12.20
2022-12-18T09:48:20.800Z,12.82
2022-12-18T09:50:48.269Z,13.43
2022-12-18T09:53:21.855Z,12.35
2022-12-18T09:55:50.045Z,12.43
2022-12-18T09:58:37.621Z,12.50
2022-12-18T10:01:11.678Z,12.95
2022-12-18T10:03:38.869Z,12.18
2022-12-18T10:06:35.458Z,12.27
2022-12-18T10:09:02.750Z,11.80
2022-12-18T10:11:29.978Z,11.88
2022-12-18T10:14:08.525Z,13.52
2022-12-18T10:16:52.929Z,10.30
2022-12-18T10:19:28.119Z,11.43
2022-12-18T10:21:55.187Z,12.68
2022-12-18T10:24:22.325Z,12.15
2022-12-18T10:26:49.648Z,12.52
2022-12-18T10:29:17.716Z,12.68
2022-12-18T10:31:44.976Z,11.55
2022-12-18T10:34:16.073Z,12.48
2022-12-18T10:36:43.921Z,11.98
2022-12-18T10:39:24.866Z,12.43
2022-12-18T10:41:52.814Z,11.90
2022-12-18T10:44:23.966Z,11.25
2022-12-18T10:46:52.417Z,13.07
2022-12-18T10:49:27.633Z,11.88
2022-12-18T10:52:14.986Z,11.70
2022-12-18T10:54:42.208Z,11.75
2022-12-18T10:57:16.891Z,11.63
2022-12-18T11:02:27.160Z,11.07
2022-12-18T11:04:54.452Z,12.10
2022-12-18T11:07:21.569Z,11.80
2022-12-18T11:10:04.116Z,11.10
2022-12-18T11:12:31.415Z,11.90
2022-12-18T11:14:58.750Z,12.25
2022-12-18T11:17:35.151Z,11.05
2022-12-18T11:20:20.935Z,12.52
2022-12-18T11:22:57.447Z,11.70
2022-12-18T11:25:33.501Z,11.85
2022-12-18T11:28:06.897Z,12.13
2022-12-18T11:30:35.634Z,11.77
2022-12-18T11:33:13.029Z,12.05
2022-12-18T11:35:50.034Z,11.60
2022-12-18T11:38:34.211Z,11.70
2022-12-18T11:41:07.487Z,11.53
2022-12-18T11:43:42.546Z,11.02
2022-12-18T11:46:19.140Z,11.43
2022-12-18T11:48:51.260Z,11.73
2022-12-18T11:51:39.887Z,13.30
2022-12-18T11:54:14.646Z,12.55
2022-12-18T11:56:44.837Z,12.40
2022-12-18T11:59:24.322Z,12.77
2022-12-18T12:02:03.572Z,14.07
2022-12-18T12:04:33.853Z,13.07
2022-12-18T12:07:15.579Z,11.30
2022-12-18T12:09:49.603Z,11.85
2022-12-18T12:12:48.654Z,11.85
2022-12-18T12:15:24.986Z,11.90
2022-12-18T12:18:19.578Z,13.27
2022-12-18T12:20:49.861Z,11.97
2022-12-18T12:23:27.876Z,12.60
2022-12-18T12:26:04.686Z,11.63
2022-12-18T12:28:50.518Z,11.82
2022-12-18T12:31:29.969Z,12.00
2022-12-18T12:34:09.448Z,10.93
2022-12-18T12:36:36.560Z,11.43
2022-12-18T12:39:08.313Z,10.57
2022-12-18T12:41:54.702Z,11.57
2022-12-18T12:44:29.928Z,10.90
2022-12-18T12:46:59.060Z,11.43
2022-12-18T12:49:28.150Z,11.88
2022-12-18T12:52:03.617Z,11.88
2022-12-18T12:54:33.404Z,12.65
2022-12-18T12:57:19.926Z,11.73
2022-12-18T12:59:53.132Z,11.65
2022-12-18T13:02:24.295Z,12.05
2022-12-18T13:04:52.798Z,12.02
2022-12-18T13:07:20.641Z,11.25
2022-12-18T13:10:07.809Z,11.23
2022-12-18T13:13:10.506Z,12.20
2022-12-18T13:15:40.857Z,11.68
2022-12-18T13:18:11.056Z,12.32
2022-12-18T13:21:02.942Z,12.27
2022-12-18T13:23:32.756Z,12.30
2022-12-18T13:25:59.932Z,11.98
2022-12-18T13:28:47.080Z,13.30
2022-12-18T13:31:15.238Z,13.23
2022-12-18T13:34:24.329Z,12.65
2022-12-18T13:36:34.736Z,12.18
2022-12-18T13:39:13.006Z,12.15
2022-12-18T13:41:40.175Z,11.15
2022-12-18T13:44:24.128Z,12.85
2022-12-18T13:46:52.579Z,12.70
2022-12-18T13:49:25.993Z,12.73
2022-12-18T13:51:55.288Z,13.43
2022-12-18T13:54:39.323Z,12.48
2022-12-18T13:57:07.717Z,12.35
2022-12-18T13:59:36.775Z,11.63
2022-12-18T14:02:22.561Z,12.27
2022-12-18T14:04:50.657Z,13.10
2022-12-18T14:07:26.205Z,10.80
2022-12-18T14:10:01.977Z,11.90
2022-12-18T14:13:00.903Z,11.18
2022-12-18T14:15:44.489Z,11.82
2022-12-18T14:18:35.023Z,11.35
2022-12-18T14:21:04.082Z,11.82
2022-12-18T14:23:31.445Z,12.15
2022-12-18T14:26:05.170Z,12.48
2022-12-18T14:28:33.316Z,11.75
2022-12-18T14:31:00.664Z,11.52
2022-12-18T14:33:29.857Z,12.55
2022-12-18T14:36:01.725Z,12.48
2022-12-18T14:38:28.878Z,11.98
2022-12-18T14:41:00.579Z,12.02
2022-12-18T14:43:28.925Z,12.60
2022-12-18T14:45:56.616Z,12.52
2022-12-18T14:48:28.103Z,11.82
2022-12-18T14:50:58.356Z,11.57
2022-12-18T14:53:34.512Z,12.05
2022-12-18T14:56:01.825Z,12.43
2022-12-18T14:58:29.156Z,11.85
2022-12-18T15:00:56.452Z,12.98
2022-12-18T15:03:24.045Z,12.15
2022-12-18T15:05:52.347Z,12.95
2022-12-18T15:08:36.276Z,11.68
2022-12-18T15:11:06.543Z,12.90
2022-12-18T15:13:36.151Z,12.35
2022-12-18T15:16:04.231Z,12.52
2022-12-18T15:18:33.965Z,12.57
2022-12-18T15:21:09.223Z,12.40
2022-12-18T15:23:38.530Z,12.10
2022-12-18T15:26:09.853Z,12.82
2022-12-18T15:28:42.199Z,11.73
2022-12-18T15:31:17.041Z,13.85
2022-12-18T15:33:47.140Z,12.98
2022-12-18T15:36:19.324Z,13.07
2022-12-18T15:38:54.274Z,12.25
2022-12-18T15:41:24.806Z,12.43
2022-12-18T15:43:53.138Z,13.90
2022-12-18T15:46:21.445Z,12.60
2022-12-18T15:48:50.295Z,12.73
2022-12-18T15:51:21.219Z,11.95
2022-12-18T15:53:49.913Z,13.63
2022-12-18T15:56:36.063Z,12.60
2022-12-18T15:59:03.364Z,13.70
2022-12-18T16:01:39.491Z,13.73
2022-12-18T16:04:12.417Z,13.52
2022-12-18T16:07:05.418Z,12.52
2022-12-18T16:09:26.784Z,12.70
2022-12-18T16:11:54.111Z,13.40
2022-12-18T16:14:23.088Z,13.85
2022-12-18T16:16:52.779Z,14.20
2022-12-18T16:19:20.418Z,14.48
2022-12-18T16:21:48.025Z,13.45
2022-12-18T16:24:23.097Z,13.45
2022-12-18T16:26:52.385Z,14.18
2022-12-18T16:29:19.917Z,14.07
2022-12-18T16:31:47.045Z,15.43
2022-12-18T16:34:32.886Z,13.73
2022-12-18T16:37:05.800Z,14.90
2022-12-18T16:39:35.069Z,14.50
2022-12-18T16:42:06.921Z,15.30
2022-12-18T16:44:37.513Z,13.73
2022-12-18T16:47:04.844Z,15.40
2022-12-18T16:49:32.071Z,15.35
2022-12-18T16:52:01.999Z,15.18
2022-12-18T16:54:30.522Z,14.93
2022-12-18T16:56:58.155Z,14.70
2022-12-18T16:59:26.750Z,15.85
2022-12-18T17:01:55.679Z,15.23
2022-12-18T17:04:22.903Z,14.63
2022-12-18T17:06:51.988Z,14.75
2022-12-18T17:09:26.263Z,14.43
2022-12-18T17:11:54.192Z,14.25
2022-12-18T17:14:23.321Z,14.80
2022-12-18T17:17:07.467Z,15.55
2022-12-18T17:19:38.529Z,16.70
2022-12-18T17:22:05.668Z,16.30
2022-12-18T17:24:35.163Z,15.80
2022-12-18T17:27:02.826Z,14.95
2022-12-18T17:29:30.049Z,14.90
2022-12-18T17:31:57.275Z,14.10
2022-12-18T17:34:25.869Z,15.20
2022-12-18T17:36:53.016Z,14.73
2022-12-18T17:39:21.373Z,15.00
2022-12-18T17:41:49.242Z,13.00
2022-12-18T17:44:16.847Z,15.90
2022-12-18T17:46:44.519Z,15.40
2022-12-18T17:49:11.819Z,15.63
2022-12-18T17:51:39.110Z,15.10
2022-12-18T17:54:06.507Z,14.68
2022-12-18T17:56:33.971Z,15.48
2022-12-18T17:59:01.338Z,15.50
2022-12-18T18:01:28.600Z,14.95
2022-12-18T18:03:56.371Z,14.50
2022-12-18T18:06:24.034Z,14.77
2022-12-18T18:08:51.388Z,15.77
2022-12-18T18:11:38.485Z,15.57
2022-12-18T18:14:07.430Z,16.42
2022-12-18T18:16:42.967Z,15.52
2022-12-18T18:19:11.587Z,15.52
2022-12-18T18:21:40.160Z,15.68
2022-12-18T18:24:08.770Z,15.15
2022-12-18T18:26:36.560Z,14.85
2022-12-18T18:29:05.754Z,16.58
2022-12-18T18:31:35.325Z,14.93
2022-12-18T18:34:08.325Z,15.13
2022-12-18T18:36:35.554Z,16.27
2022-12-18T18:39:03.088Z,15.85
2022-12-18T18:41:30.714Z,16.25
2022-12-18T18:43:58.760Z,15.45
2022-12-18T18:46:26.406Z,16.13
2022-12-18T18:48:53.907Z,15.55
2022-12-18T18:51:21.944Z,16.95
2022-12-18T18:53:50.149Z,17.25
2022-12-18T18:59:06.303Z,17.05
2022-12-18T19:01:33.705Z,18.40
2022-12-18T19:04:04.361Z,16.77
2022-12-18T19:06:31.735Z,16.85
2022-12-18T19:08:59.912Z,16.23
2022-12-18T19:11:46.973Z,16.85
2022-12-18T19:14:15.371Z,15.18
2022-12-18T19:16:43.517Z,16.20
2022-12-18T19:19:11.302Z,15.23
2022-12-18T19:21:38.446Z,15.40
2022-12-18T19:24:06.290Z,16.13
2022-12-18T19:26:33.521Z,16.70
2022-12-18T19:29:08.285Z,16.45
2022-12-18T19:31:36.999Z,15.93
2022-12-18T19:34:08.010Z,14.60
2022-12-18T19:36:36.184Z,15.95
2022-12-18T19:39:07.846Z,14.13
2022-12-18T19:41:35.269Z,16.50
2022-12-18T19:44:07.671Z,14.82
2022-12-18T19:46:35.890Z,15.57
2022-12-18T19:49:03.415Z,15.10
2022-12-18T19:51:32.127Z,15.68
2022-12-18T19:54:01.713Z,16.63
2022-12-18T19:56:31.529Z,15.75
2022-12-18T19:58:58.922Z,16.73
2022-12-18T20:01:27.314Z,15.85
2022-12-18T20:03:56.349Z,15.32
2022-12-18T20:06:32.703Z,14.60
2022-12-18T20:09:01.723Z,15.55
2022-12-18T20:11:30.101Z,15.70
2022-12-18T20:13:57.717Z,15.80
2022-12-18T20:16:24.939Z,16.67
2022-12-18T20:18:55.566Z,16.70
2022-12-18T20:21:23.213Z,17.13
2022-12-18T20:23:50.462Z,18.42
2022-12-18T20:26:17.674Z,16.73
2022-12-18T20:28:45.080Z,15.32
2022-12-18T20:31:13.477Z,15.43
2022-12-18T20:33:41.652Z,17.08
2022-12-18T20:36:11.279Z,17.52
2022-12-18T20:38:39.583Z,16.90
2022-12-18T20:41:12.285Z,17.75
2022-12-18T20:43:40.447Z,16.65
2022-12-18T20:46:10.183Z,16.48
2022-12-18T20:48:40.982Z,17.00
2022-12-18T20:51:10.404Z,15.50
2022-12-18T20:53:37.673Z,16.35
2022-12-18T20:56:09.318Z,17.77
2022-12-18T20:58:36.476Z,17.17
2022-12-18T21:01:05.301Z,16.90
2022-12-18T21:03:32.687Z,16.60
2022-12-18T21:06:00.097Z,17.17
2022-12-18T21:08:27.505Z,15.95
2022-12-18T21:10:55.577Z,15.57
2022-12-18T21:13:23.142Z,18.63
2022-12-18T21:15:50.321Z,16.17
2022-12-18T21:18:17.528Z,16.85
2022-12-18T21:20:44.854Z,17.90
2022-12-18T21:23:16.626Z,17.73
2022-12-18T21:25:44.390Z,17.70
2022-12-18T21:28:12.887Z,18.13
2022-12-18T21:30:40.269Z,18.27
2022-12-18T21:33:07.477Z,16.08
2022-12-18T21:35:34.602Z,16.88
2022-12-18T21:38:01.772Z,16.77
2022-12-18T21:40:31.498Z,15.88
2022-12-18T21:43:17.885Z,16.95
2022-12-18T21:45:45.128Z,16.50
2022-12-18T21:48:12.451Z,17.55
2022-12-18T21:50:39.646Z,16.70
2022-12-18T21:53:06.955Z,17.70
2022-12-18T21:55:34.159Z,18.65
2022-12-18T21:58:01.325Z,15.90
2022-12-18T22:00:28.712Z,17.90
2022-12-18T22:03:17.947Z,16.05
2022-12-18T22:05:43.210Z,16.23
2022-12-18T22:08:10.451Z,17.08
2022-12-18T22:10:38.164Z,18.98
2022-12-18T22:13:06.172Z,17.40
2022-12-18T22:15:33.658Z,16.67
2022-12-18T22:18:00.831Z,16.70
2022-12-18T22:20:29.785Z,18.33
2022-12-18T22:22:57.448Z,17.20
2022-12-18T22:25:24.696Z,17.35
2022-12-18T22:28:10.407Z,17.35
2022-12-18T22:30:37.614Z,16.27
2022-12-18T22:33:04.867Z,18.05
2022-12-18T22:35:32.088Z,17.40
2022-12-18T22:37:59.907Z,18.38
2022-12-18T22:40:27.559Z,16.75
2022-12-18T22:42:55.990Z,17.55
2022-12-18T22:45:23.222Z,17.90
2022-12-18T22:47:50.481Z,19.00
2022-12-18T22:50:17.742Z,17.40
2022-12-18T22:52:45.039Z,16.70
2022-12-18T22:55:12.173Z,15.52
2022-12-18T22:57:41.153Z,17.80
2022-12-18T23:00:16.268Z,18.58
2022-12-18T23:02:45.324Z,17.88
2022-12-18T23:05:12.652Z,17.15
2022-12-18T23:07:39.840Z,17.73
2022-12-18T23:10:07.142Z,17.73
2022-12-18T23:12:35.827Z,16.00
2022-12-18T23:15:05.516Z,17.05
2022-12-18T23:17:32.639Z,18.90
2022-12-18T23:19:59.789Z,16.52
2022-12-18T23:22:27.679Z,16.80
2022-12-18T23:24:54.869Z,17.13
2022-12-18T23:27:21.995Z,17.52
2022-12-18T23:29:49.345Z,17.50
2022-12-18T23:32:18.103Z,18.52
2022-12-18T23:34:45.276Z,17.88
2022-12-18T23:37:12.406Z,17.25
2022-12-18T23:39:39.640Z,17.35
2022-12-18T23:42:06.765Z,16.73
2022-12-18T23:44:34.006Z,18.08
2022-12-18T23:47:04.251Z,15.98
2022-12-18T23:49:31.554Z,16.77
2022-12-18T23:51:58.724Z,17.27
2022-12-18T23:54:33.204Z,15.95
2022-12-18T23:57:00.827Z,16.25
2022-12-18T23:59:27.944Z,16.45
